Strona główna
METAR-TAF:

METAR-TAF

Lotnisko :

Port lotniczy Batam-Hang Nadim

Batam, Indonezja

Szerokość geograficzna: 01-07-15N, Długość geograficzna: 104-07-07E, wysokość: 38 m

Aktualna obserwacja pogody

Raport powstał 1 godzina i 14 minut temu, godzina 09:30 UTC
Wiatr 9 kt od południowo-południowy zachód
Temperatura 28°C
Wilgotność 79%
Ciśnienie 1010 hPa
Widzialność 10 km lub więcej
Rozproszone chmury na wysokości 1400 ft

METAR: WIDD 170930Z 20009KT 9999 SCT014 28/24 Q1010

czas: 17:44 (10:44 UTC)

Prognoza

Raport powstał 5 godziny i 44 minut temu, godzina 05:00 UTC
Prognoza ważna od 17 godzina 06 UTC do 18 godzina 06 UTC
Wiatr 9 kt od południowo-południowy wschód
Widzialność 10 km lub więcej
Rozproszone chmury na wysokości 1400 ft
Stopniowe zmiany
od 17 godzina 12 UTC do 17 godzina 13 UTC
Wiatr kt od północ

TAF: WIDD 170500Z 1706/1806 16009KT 9999 SCT014 BECMG 1712/1713 00000KT

Obserwacja i prognoza pogody dla ponad 4000 lotnisk (raport METAR i TAF).

Dostępne stacje oznaczono żółtymi i czerwonymi punktami na mapie.

Najedź kursorem aby zobaczyć nazwę stacji.

Kliknij aby zobaczyć obserwacje i prognozy pogody.

Aby zmienić mapę: kliknij na zielony przycisk z czarnym krzyżykiem, aby powiększyć; na zielony przycisk z myślnikiem, aby pomniejszyć; na zielone strzałki, aby przejść do map sąsiednich.


METAR-TAF: